Brookfield, Massachusetts
Current Conditions -  °F | °C
As of 9:54 PM on Wednesday 26 Nov 2014 (Local Time) from KORH Reporting Station
Light Snow Light Snow  
Wind Chill: 18°   Ceiling: 700
Heat Index: 30°   Visibility: 1.2mi
Dew Point: 30°   Wind: 20mph
Humidity: 100%   Direction: 10°N
Pressure: 29.69"   Gusts: 33mph
Location:  42.21°N, 72.1°W
Report Text: KORH 270254Z AUTO 01017G29KT 1 1/4SM -SN BR BKN007 OVC012 M01/M01 A2969 RMK AO2 PK WND 36029/0248 UPE01SNB01 SLP064 P0006 60028 I3000 T10111011 58011
Loading
Personal Weather Stations






























Interactive Weather Map New forecast layout! Learn more

10-Day Weather Forecast

Advertisements
Track Severe Weather on mobile